sensor_id;sensor_type;location;lat;lon;timestamp;temperature;humidity
19252;DHT22;9760;50.944;5.304;2022-10-22T00:00:30;13.70;99.90
19252;DHT22;9760;50.944;5.304;2022-10-22T00:02:56;13.70;99.90
19252;DHT22;9760;50.944;5.304;2022-10-22T00:05:22;13.70;99.90
19252;DHT22;9760;50.944;5.304;2022-10-22T00:07:48;13.80;99.90
19252;DHT22;9760;50.944;5.304;2022-10-22T00:10:14;13.80;99.90
19252;DHT22;9760;50.944;5.304;2022-10-22T00:12:41;13.80;99.90
19252;DHT22;9760;50.944;5.304;2022-10-22T00:15:07;13.90;99.90
19252;DHT22;9760;50.944;5.304;2022-10-22T00:17:33;13.90;99.90
19252;DHT22;9760;50.944;5.304;2022-10-22T00:19:58;13.90;99.90
19252;DHT22;9760;50.944;5.304;2022-10-22T00:22:24;14.00;99.90
19252;DHT22;9760;50.944;5.304;2022-10-22T00:24:50;14.10;99.90
19252;DHT22;9760;50.944;5.304;2022-10-22T00:27:15;14.10;99.90
19252;DHT22;9760;50.944;5.304;2022-10-22T00:29:41;14.10;99.90
19252;DHT22;9760;50.944;5.304;2022-10-22T00:32:06;14.10;99.90
19252;DHT22;9760;50.944;5.304;2022-10-22T00:34:32;14.20;99.90
19252;DHT22;9760;50.944;5.304;2022-10-22T00:36:58;14.20;99.90
19252;DHT22;9760;50.944;5.304;2022-10-22T00:39:25;14.20;99.90
19252;DHT22;9760;50.944;5.304;2022-10-22T00:41:52;14.20;99.90
19252;DHT22;9760;50.944;5.304;2022-10-22T00:47:23;14.20;99.90
19252;DHT22;9760;50.944;5.304;2022-10-22T00:49:50;14.20;99.90
19252;DHT22;9760;50.944;5.304;2022-10-22T00:52:18;14.20;99.90
19252;DHT22;9760;50.944;5.304;2022-10-22T00:54:44;14.20;99.90
19252;DHT22;9760;50.944;5.304;2022-10-22T00:57:09;14.30;99.90
19252;DHT22;9760;50.944;5.304;2022-10-22T00:59:35;14.30;99.90
19252;DHT22;9760;50.944;5.304;2022-10-22T01:02:02;14.40;99.90
19252;DHT22;9760;50.944;5.304;2022-10-22T01:04:28;14.40;99.90
19252;DHT22;9760;50.944;5.304;2022-10-22T01:06:53;14.50;99.90
19252;DHT22;9760;50.944;5.304;2022-10-22T01:12:03;14.50;99.90
19252;DHT22;9760;50.944;5.304;2022-10-22T01:28:17;14.40;99.90
19252;DHT22;9760;50.944;5.304;2022-10-22T01:30:46;14.40;99.90
19252;DHT22;9760;50.944;5.304;2022-10-22T01:33:16;14.40;99.90
19252;DHT22;9760;50.944;5.304;2022-10-22T01:35:44;14.40;99.90
19252;DHT22;9760;50.944;5.304;2022-10-22T01:38:13;14.40;99.90
19252;DHT22;9760;50.944;5.304;2022-10-22T01:40:39;14.50;99.90
19252;DHT22;9760;50.944;5.304;2022-10-22T01:43:08;14.50;99.90
19252;DHT22;9760;50.944;5.304;2022-10-22T01:45:41;14.50;99.90
19252;DHT22;9760;50.944;5.304;2022-10-22T01:56:36;14.60;99.90
19252;DHT22;9760;50.944;5.304;2022-10-22T01:59:24;14.60;99.90
19252;DHT22;9760;50.944;5.304;2022-10-22T02:07:04;14.60;99.90
19252;DHT22;9760;50.944;5.304;2022-10-22T02:09:31;14.60;99.90
19252;DHT22;9760;50.944;5.304;2022-10-22T02:11:58;14.50;99.90
19252;DHT22;9760;50.944;5.304;2022-10-22T02:14:27;14.50;99.90
19252;DHT22;9760;50.944;5.304;2022-10-22T02:16:54;14.50;99.90
19252;DHT22;9760;50.944;5.304;2022-10-22T02:19:26;14.50;99.90
19252;DHT22;9760;50.944;5.304;2022-10-22T02:21:53;14.50;99.90
19252;DHT22;9760;50.944;5.304;2022-10-22T02:24:20;14.50;99.90
19252;DHT22;9760;50.944;5.304;2022-10-22T02:29:36;14.50;99.90
19252;DHT22;9760;50.944;5.304;2022-10-22T02:32:05;14.50;99.90
19252;DHT22;9760;50.944;5.304;2022-10-22T02:34:31;14.40;99.90
19252;DHT22;9760;50.944;5.304;2022-10-22T02:36:59;14.40;99.90
19252;DHT22;9760;50.944;5.304;2022-10-22T02:39:25;14.40;99.90
19252;DHT22;9760;50.944;5.304;2022-10-22T02:41:51;14.30;99.90
19252;DHT22;9760;50.944;5.304;2022-10-22T02:44:20;14.40;99.90
19252;DHT22;9760;50.944;5.304;2022-10-22T02:46:46;14.30;99.90
19252;DHT22;9760;50.944;5.304;2022-10-22T02:49:12;14.30;99.90
19252;DHT22;9760;50.944;5.304;2022-10-22T02:51:38;14.30;99.90
19252;DHT22;9760;50.944;5.304;2022-10-22T02:54:04;14.20;99.90
19252;DHT22;9760;50.944;5.304;2022-10-22T02:56:30;14.30;99.90
19252;DHT22;9760;50.944;5.304;2022-10-22T02:58:58;14.30;99.90
19252;DHT22;9760;50.944;5.304;2022-10-22T03:01:24;14.20;99.90
19252;DHT22;9760;50.944;5.304;2022-10-22T03:03:50;14.20;99.90
19252;DHT22;9760;50.944;5.304;2022-10-22T03:06:16;14.20;99.90
19252;DHT22;9760;50.944;5.304;2022-10-22T03:08:42;14.30;99.90
19252;DHT22;9760;50.944;5.304;2022-10-22T03:11:07;14.30;99.90
19252;DHT22;9760;50.944;5.304;2022-10-22T03:13:33;14.30;99.90
19252;DHT22;9760;50.944;5.304;2022-10-22T03:15:58;14.30;99.90
19252;DHT22;9760;50.944;5.304;2022-10-22T03:18:24;14.30;99.90
19252;DHT22;9760;50.944;5.304;2022-10-22T03:20:52;14.20;99.90
19252;DHT22;9760;50.944;5.304;2022-10-22T03:23:23;14.30;99.90
19252;DHT22;9760;50.944;5.304;2022-10-22T03:25:49;14.30;99.90
19252;DHT22;9760;50.944;5.304;2022-10-22T03:28:16;14.10;99.90
19252;DHT22;9760;50.944;5.304;2022-10-22T03:30:42;14.20;99.90
19252;DHT22;9760;50.944;5.304;2022-10-22T03:33:08;14.20;99.90
19252;DHT22;9760;50.944;5.304;2022-10-22T03:35:39;14.20;99.90
19252;DHT22;9760;50.944;5.304;2022-10-22T03:38:06;14.20;99.90
19252;DHT22;9760;50.944;5.304;2022-10-22T03:40:32;14.20;99.90
19252;DHT22;9760;50.944;5.304;2022-10-22T03:42:58;14.20;99.90
19252;DHT22;9760;50.944;5.304;2022-10-22T03:45:24;14.20;99.90
19252;DHT22;9760;50.944;5.304;2022-10-22T03:47:49;14.20;99.90
19252;DHT22;9760;50.944;5.304;2022-10-22T03:50:15;14.20;99.90
19252;DHT22;9760;50.944;5.304;2022-10-22T03:52:41;14.20;99.90
19252;DHT22;9760;50.944;5.304;2022-10-22T03:55:08;14.20;99.90
19252;DHT22;9760;50.944;5.304;2022-10-22T03:57:33;14.20;99.90
19252;DHT22;9760;50.944;5.304;2022-10-22T03:59:59;14.30;99.90
19252;DHT22;9760;50.944;5.304;2022-10-22T04:02:25;14.20;99.90
19252;DHT22;9760;50.944;5.304;2022-10-22T04:04:50;14.20;99.90
19252;DHT22;9760;50.944;5.304;2022-10-22T04:07:16;14.20;99.90
19252;DHT22;9760;50.944;5.304;2022-10-22T04:09:41;14.20;99.90
19252;DHT22;9760;50.944;5.304;2022-10-22T04:12:07;14.10;99.90
19252;DHT22;9760;50.944;5.304;2022-10-22T04:14:34;14.10;99.90
19252;DHT22;9760;50.944;5.304;2022-10-22T04:16:59;14.10;99.90
19252;DHT22;9760;50.944;5.304;2022-10-22T04:19:25;14.10;99.90
19252;DHT22;9760;50.944;5.304;2022-10-22T04:21:51;14.10;99.90
19252;DHT22;9760;50.944;5.304;2022-10-22T04:24:16;14.10;99.90
19252;DHT22;9760;50.944;5.304;2022-10-22T04:26:42;14.10;99.90
19252;DHT22;9760;50.944;5.304;2022-10-22T04:29:08;14.10;99.90
19252;DHT22;9760;50.944;5.304;2022-10-22T04:31:33;14.10;99.90
19252;DHT22;9760;50.944;5.304;2022-10-22T04:34:00;14.10;99.90
19252;DHT22;9760;50.944;5.304;2022-10-22T04:36:27;14.20;99.90
19252;DHT22;9760;50.944;5.304;2022-10-22T04:38:54;14.10;99.90
19252;DHT22;9760;50.944;5.304;2022-10-22T04:41:27;14.10;99.90
19252;DHT22;9760;50.944;5.304;2022-10-22T04:43:54;14.10;99.90
19252;DHT22;9760;50.944;5.304;2022-10-22T04:46:20;14.10;99.90
19252;DHT22;9760;50.944;5.304;2022-10-22T04:48:46;14.10;99.90
19252;DHT22;9760;50.944;5.304;2022-10-22T04:51:14;14.20;99.90
19252;DHT22;9760;50.944;5.304;2022-10-22T04:53:40;14.20;99.90
19252;DHT22;9760;50.944;5.304;2022-10-22T04:56:14;14.20;99.90
19252;DHT22;9760;50.944;5.304;2022-10-22T04:58:41;14.30;99.90
19252;DHT22;9760;50.944;5.304;2022-10-22T05:01:12;14.30;99.90
19252;DHT22;9760;50.944;5.304;2022-10-22T05:03:38;14.40;99.90
19252;DHT22;9760;50.944;5.304;2022-10-22T05:06:04;14.40;99.90
19252;DHT22;9760;50.944;5.304;2022-10-22T05:08:30;14.50;99.90
19252;DHT22;9760;50.944;5.304;2022-10-22T05:10:56;14.50;99.90
19252;DHT22;9760;50.944;5.304;2022-10-22T05:13:21;14.60;99.90
19252;DHT22;9760;50.944;5.304;2022-10-22T05:15:47;14.70;99.90
19252;DHT22;9760;50.944;5.304;2022-10-22T05:18:12;14.70;99.90
19252;DHT22;9760;50.944;5.304;2022-10-22T05:20:39;14.70;99.90
19252;DHT22;9760;50.944;5.304;2022-10-22T05:23:05;14.60;99.90
19252;DHT22;9760;50.944;5.304;2022-10-22T05:25:30;14.60;99.90
19252;DHT22;9760;50.944;5.304;2022-10-22T05:27:56;14.60;99.90
19252;DHT22;9760;50.944;5.304;2022-10-22T05:30:21;14.60;99.90
19252;DHT22;9760;50.944;5.304;2022-10-22T05:32:47;14.60;99.90
19252;DHT22;9760;50.944;5.304;2022-10-22T05:35:13;14.50;99.90
19252;DHT22;9760;50.944;5.304;2022-10-22T05:37:38;14.50;99.90
19252;DHT22;9760;50.944;5.304;2022-10-22T05:40:04;14.50;99.90
19252;DHT22;9760;50.944;5.304;2022-10-22T05:42:31;14.40;99.90
19252;DHT22;9760;50.944;5.304;2022-10-22T05:44:57;14.40;99.90
19252;DHT22;9760;50.944;5.304;2022-10-22T05:47:22;14.40;99.90
19252;DHT22;9760;50.944;5.304;2022-10-22T05:49:48;14.40;99.90
19252;DHT22;9760;50.944;5.304;2022-10-22T05:52:14;14.30;99.90
19252;DHT22;9760;50.944;5.304;2022-10-22T05:54:39;14.30;99.90
19252;DHT22;9760;50.944;5.304;2022-10-22T05:57:05;14.30;99.90
19252;DHT22;9760;50.944;5.304;2022-10-22T05:59:31;14.30;99.90
19252;DHT22;9760;50.944;5.304;2022-10-22T06:01:56;14.30;99.90
19252;DHT22;9760;50.944;5.304;2022-10-22T06:04:22;14.20;99.90
19252;DHT22;9760;50.944;5.304;2022-10-22T06:06:49;14.20;99.90
19252;DHT22;9760;50.944;5.304;2022-10-22T06:09:22;14.20;99.90
19252;DHT22;9760;50.944;5.304;2022-10-22T06:11:50;14.20;99.90
19252;DHT22;9760;50.944;5.304;2022-10-22T06:14:16;14.20;99.90
19252;DHT22;9760;50.944;5.304;2022-10-22T06:16:42;14.20;99.90
19252;DHT22;9760;50.944;5.304;2022-10-22T06:19:12;14.20;99.90
19252;DHT22;9760;50.944;5.304;2022-10-22T06:21:38;14.20;99.90
19252;DHT22;9760;50.944;5.304;2022-10-22T06:24:04;14.20;99.90
19252;DHT22;9760;50.944;5.304;2022-10-22T06:26:30;14.20;99.90
19252;DHT22;9760;50.944;5.304;2022-10-22T06:28:57;14.20;99.90
19252;DHT22;9760;50.944;5.304;2022-10-22T06:31:24;14.20;99.90
19252;DHT22;9760;50.944;5.304;2022-10-22T06:33:50;14.20;99.90
19252;DHT22;9760;50.944;5.304;2022-10-22T06:36:19;14.20;99.90
19252;DHT22;9760;50.944;5.304;2022-10-22T06:38:45;14.10;99.90
19252;DHT22;9760;50.944;5.304;2022-10-22T06:41:15;14.10;99.90
19252;DHT22;9760;50.944;5.304;2022-10-22T06:43:42;14.10;99.90
19252;DHT22;9760;50.944;5.304;2022-10-22T06:46:13;14.10;99.90
19252;DHT22;9760;50.944;5.304;2022-10-22T06:48:39;14.20;99.90
19252;DHT22;9760;50.944;5.304;2022-10-22T06:51:08;14.30;99.90
19252;DHT22;9760;50.944;5.304;2022-10-22T06:53:35;14.30;99.90
19252;DHT22;9760;50.944;5.304;2022-10-22T06:56:05;14.40;99.90
19252;DHT22;9760;50.944;5.304;2022-10-22T06:58:31;14.50;99.90
19252;DHT22;9760;50.944;5.304;2022-10-22T07:01:04;14.60;99.90
19252;DHT22;9760;50.944;5.304;2022-10-22T07:03:30;14.70;99.90
19252;DHT22;9760;50.944;5.304;2022-10-22T07:06:04;14.80;99.90
19252;DHT22;9760;50.944;5.304;2022-10-22T07:08:30;14.80;99.90
19252;DHT22;9760;50.944;5.304;2022-10-22T07:11:14;14.80;99.90
19252;DHT22;9760;50.944;5.304;2022-10-22T07:13:40;14.80;99.90
19252;DHT22;9760;50.944;5.304;2022-10-22T07:16:07;14.80;99.90
19252;DHT22;9760;50.944;5.304;2022-10-22T07:18:34;14.90;99.90
19252;DHT22;9760;50.944;5.304;2022-10-22T07:21:00;14.80;99.90
19252;DHT22;9760;50.944;5.304;2022-10-22T07:23:27;14.90;99.90
19252;DHT22;9760;50.944;5.304;2022-10-22T07:25:53;14.90;99.90
19252;DHT22;9760;50.944;5.304;2022-10-22T07:28:18;14.90;99.90
19252;DHT22;9760;50.944;5.304;2022-10-22T07:30:44;15.00;99.90
19252;DHT22;9760;50.944;5.304;2022-10-22T07:33:10;15.00;99.90
19252;DHT22;9760;50.944;5.304;2022-10-22T07:35:38;15.00;99.90
19252;DHT22;9760;50.944;5.304;2022-10-22T07:38:04;15.10;99.90
19252;DHT22;9760;50.944;5.304;2022-10-22T07:40:30;15.00;99.90
19252;DHT22;9760;50.944;5.304;2022-10-22T07:42:56;15.10;99.90
19252;DHT22;9760;50.944;5.304;2022-10-22T07:45:21;15.10;99.90
19252;DHT22;9760;50.944;5.304;2022-10-22T07:47:47;15.10;99.90
19252;DHT22;9760;50.944;5.304;2022-10-22T07:50:14;15.20;99.90
19252;DHT22;9760;50.944;5.304;2022-10-22T07:52:39;15.20;99.90
19252;DHT22;9760;50.944;5.304;2022-10-22T07:55:05;15.20;99.90
19252;DHT22;9760;50.944;5.304;2022-10-22T07:57:31;15.20;99.90
19252;DHT22;9760;50.944;5.304;2022-10-22T07:59:57;15.20;99.90
19252;DHT22;9760;50.944;5.304;2022-10-22T08:02:24;15.20;99.90
19252;DHT22;9760;50.944;5.304;2022-10-22T08:04:50;15.30;99.90
19252;DHT22;9760;50.944;5.304;2022-10-22T08:07:17;15.40;99.90
19252;DHT22;9760;50.944;5.304;2022-10-22T08:09:42;15.50;99.90
19252;DHT22;9760;50.944;5.304;2022-10-22T08:12:08;15.50;99.90
19252;DHT22;9760;50.944;5.304;2022-10-22T08:14:34;15.60;99.90
19252;DHT22;9760;50.944;5.304;2022-10-22T08:17:00;15.60;99.90
19252;DHT22;9760;50.944;5.304;2022-10-22T08:19:25;15.60;99.90
19252;DHT22;9760;50.944;5.304;2022-10-22T08:21:53;15.60;99.90
19252;DHT22;9760;50.944;5.304;2022-10-22T08:24:18;15.60;99.90
19252;DHT22;9760;50.944;5.304;2022-10-22T08:26:44;15.60;99.90
19252;DHT22;9760;50.944;5.304;2022-10-22T08:29:10;15.60;99.90
19252;DHT22;9760;50.944;5.304;2022-10-22T08:31:35;15.70;99.90
19252;DHT22;9760;50.944;5.304;2022-10-22T08:34:01;15.80;99.90
19252;DHT22;9760;50.944;5.304;2022-10-22T08:36:26;15.80;99.90
19252;DHT22;9760;50.944;5.304;2022-10-22T08:38:52;15.90;99.90
19252;DHT22;9760;50.944;5.304;2022-10-22T08:41:20;16.00;99.90
19252;DHT22;9760;50.944;5.304;2022-10-22T08:49:29;16.20;99.90
19252;DHT22;9760;50.944;5.304;2022-10-22T08:51:58;16.20;99.90
19252;DHT22;9760;50.944;5.304;2022-10-22T08:59:53;16.30;99.90
19252;DHT22;9760;50.944;5.304;2022-10-22T09:05:52;16.40;99.90
19252;DHT22;9760;50.944;5.304;2022-10-22T09:08:20;16.30;99.90
19252;DHT22;9760;50.944;5.304;2022-10-22T09:10:50;16.40;99.90
19252;DHT22;9760;50.944;5.304;2022-10-22T09:13:19;16.40;99.90
19252;DHT22;9760;50.944;5.304;2022-10-22T09:15:52;16.50;99.90
19252;DHT22;9760;50.944;5.304;2022-10-22T09:21:18;16.50;99.90
19252;DHT22;9760;50.944;5.304;2022-10-22T09:26:20;16.60;99.90
19252;DHT22;9760;50.944;5.304;2022-10-22T09:28:49;16.60;99.90
19252;DHT22;9760;50.944;5.304;2022-10-22T09:31:15;16.60;99.90
19252;DHT22;9760;50.944;5.304;2022-10-22T09:33:43;16.70;99.90
19252;DHT22;9760;50.944;5.304;2022-10-22T09:36:16;16.80;99.90
19252;DHT22;9760;50.944;5.304;2022-10-22T09:38:48;16.80;99.90
19252;DHT22;9760;50.944;5.304;2022-10-22T09:41:14;16.80;99.90
19252;DHT22;9760;50.944;5.304;2022-10-22T09:43:39;16.80;99.90
19252;DHT22;9760;50.944;5.304;2022-10-22T09:46:13;16.90;99.90
19252;DHT22;9760;50.944;5.304;2022-10-22T09:48:42;17.00;99.90
19252;DHT22;9760;50.944;5.304;2022-10-22T09:53:57;16.90;99.90
19252;DHT22;9760;50.944;5.304;2022-10-22T09:58:57;17.00;99.90
19252;DHT22;9760;50.944;5.304;2022-10-22T10:01:32;17.00;99.90
19252;DHT22;9760;50.944;5.304;2022-10-22T10:04:07;17.00;99.90
19252;DHT22;9760;50.944;5.304;2022-10-22T10:06:33;16.90;99.90
19252;DHT22;9760;50.944;5.304;2022-10-22T10:09:00;17.00;99.90
19252;DHT22;9760;50.944;5.304;2022-10-22T10:11:44;16.90;99.90
19252;DHT22;9760;50.944;5.304;2022-10-22T10:19:45;17.00;99.90
19252;DHT22;9760;50.944;5.304;2022-10-22T10:22:30;17.10;99.90
19252;DHT22;9760;50.944;5.304;2022-10-22T10:28:16;17.50;99.90
19252;DHT22;9760;50.944;5.304;2022-10-22T10:30:56;17.60;99.90
19252;DHT22;9760;50.944;5.304;2022-10-22T10:33:43;17.80;99.90
19252;DHT22;9760;50.944;5.304;2022-10-22T10:38:57;17.80;99.90
19252;DHT22;9760;50.944;5.304;2022-10-22T10:44:23;17.90;99.90
19252;DHT22;9760;50.944;5.304;2022-10-22T10:47:14;17.90;99.90
19252;DHT22;9760;50.944;5.304;2022-10-22T10:49:44;17.80;99.90
19252;DHT22;9760;50.944;5.304;2022-10-22T11:00:11;18.00;99.90
19252;DHT22;9760;50.944;5.304;2022-10-22T11:07:47;17.90;99.90
19252;DHT22;9760;50.944;5.304;2022-10-22T11:13:30;18.00;99.90
19252;DHT22;9760;50.944;5.304;2022-10-22T11:18:43;18.00;99.90
19252;DHT22;9760;50.944;5.304;2022-10-22T11:21:26;18.20;99.90
19252;DHT22;9760;50.944;5.304;2022-10-22T11:24:02;18.10;99.90
19252;DHT22;9760;50.944;5.304;2022-10-22T11:26:53;18.10;99.90
19252;DHT22;9760;50.944;5.304;2022-10-22T11:29:24;18.30;99.90
19252;DHT22;9760;50.944;5.304;2022-10-22T11:31:54;18.50;99.90
19252;DHT22;9760;50.944;5.304;2022-10-22T11:34:31;18.40;99.90
19252;DHT22;9760;50.944;5.304;2022-10-22T11:36:58;18.50;99.90
19252;DHT22;9760;50.944;5.304;2022-10-22T11:39:44;18.60;99.90
19252;DHT22;9760;50.944;5.304;2022-10-22T11:42:22;18.60;99.90
19252;DHT22;9760;50.944;5.304;2022-10-22T11:44:58;18.60;99.90
19252;DHT22;9760;50.944;5.304;2022-10-22T11:47:31;18.70;99.90
19252;DHT22;9760;50.944;5.304;2022-10-22T11:53:03;19.00;99.90
19252;DHT22;9760;50.944;5.304;2022-10-22T12:08:54;19.00;99.90
19252;DHT22;9760;50.944;5.304;2022-10-22T12:11:40;19.10;99.90
19252;DHT22;9760;50.944;5.304;2022-10-22T12:14:33;19.20;99.90
19252;DHT22;9760;50.944;5.304;2022-10-22T12:19:41;19.20;99.90
19252;DHT22;9760;50.944;5.304;2022-10-22T12:22:17;19.00;99.90
19252;DHT22;9760;50.944;5.304;2022-10-22T12:24:46;19.00;99.90
19252;DHT22;9760;50.944;5.304;2022-10-22T12:27:39;19.10;99.90
19252;DHT22;9760;50.944;5.304;2022-10-22T12:30:21;19.20;99.90
19252;DHT22;9760;50.944;5.304;2022-10-22T12:32:51;19.00;99.90
19252;DHT22;9760;50.944;5.304;2022-10-22T12:35:20;18.70;99.90
19252;DHT22;9760;50.944;5.304;2022-10-22T12:38:02;18.80;99.90
19252;DHT22;9760;50.944;5.304;2022-10-22T12:40:33;18.80;99.90
19252;DHT22;9760;50.944;5.304;2022-10-22T12:43:01;19.00;99.90
19252;DHT22;9760;50.944;5.304;2022-10-22T12:45:30;19.20;99.90
19252;DHT22;9760;50.944;5.304;2022-10-22T12:47:58;19.10;99.90
19252;DHT22;9760;50.944;5.304;2022-10-22T12:50:34;19.10;99.90
19252;DHT22;9760;50.944;5.304;2022-10-22T12:53:05;19.10;99.90
19252;DHT22;9760;50.944;5.304;2022-10-22T12:55:32;19.20;99.90
19252;DHT22;9760;50.944;5.304;2022-10-22T12:57:58;19.10;99.90
19252;DHT22;9760;50.944;5.304;2022-10-22T13:00:26;18.90;99.90
19252;DHT22;9760;50.944;5.304;2022-10-22T13:02:52;18.90;99.90
19252;DHT22;9760;50.944;5.304;2022-10-22T13:05:22;18.90;99.90
19252;DHT22;9760;50.944;5.304;2022-10-22T13:08:10;18.90;99.90
19252;DHT22;9760;50.944;5.304;2022-10-22T13:10:39;19.00;99.90
19252;DHT22;9760;50.944;5.304;2022-10-22T13:13:05;19.10;99.90
19252;DHT22;9760;50.944;5.304;2022-10-22T13:18:22;18.80;99.90
19252;DHT22;9760;50.944;5.304;2022-10-22T13:23:19;19.00;99.90
19252;DHT22;9760;50.944;5.304;2022-10-22T13:25:55;19.00;99.90
19252;DHT22;9760;50.944;5.304;2022-10-22T13:28:21;19.10;99.90
19252;DHT22;9760;50.944;5.304;2022-10-22T13:31:00;19.20;99.90
19252;DHT22;9760;50.944;5.304;2022-10-22T13:33:39;19.10;99.90
19252;DHT22;9760;50.944;5.304;2022-10-22T13:36:06;19.10;99.90
19252;DHT22;9760;50.944;5.304;2022-10-22T13:38:33;19.20;99.90
19252;DHT22;9760;50.944;5.304;2022-10-22T13:40:58;19.30;99.90
19252;DHT22;9760;50.944;5.304;2022-10-22T13:43:24;19.30;99.90
19252;DHT22;9760;50.944;5.304;2022-10-22T13:45:56;19.30;99.90
19252;DHT22;9760;50.944;5.304;2022-10-22T13:48:23;19.30;99.90
19252;DHT22;9760;50.944;5.304;2022-10-22T13:50:50;19.30;99.90
19252;DHT22;9760;50.944;5.304;2022-10-22T13:53:20;19.30;99.90
19252;DHT22;9760;50.944;5.304;2022-10-22T13:55:46;19.30;99.90
19252;DHT22;9760;50.944;5.304;2022-10-22T14:01:56;19.30;99.90
19252;DHT22;9760;50.944;5.304;2022-10-22T14:04:22;19.30;99.90
19252;DHT22;9760;50.944;5.304;2022-10-22T14:06:47;19.30;99.90
19252;DHT22;9760;50.944;5.304;2022-10-22T14:09:14;19.20;99.90
19252;DHT22;9760;50.944;5.304;2022-10-22T14:11:40;19.20;99.90
19252;DHT22;9760;50.944;5.304;2022-10-22T14:14:05;19.20;99.90
19252;DHT22;9760;50.944;5.304;2022-10-22T14:16:33;19.20;99.90
19252;DHT22;9760;50.944;5.304;2022-10-22T14:19:00;19.20;99.90
19252;DHT22;9760;50.944;5.304;2022-10-22T14:21:34;19.20;99.90
19252;DHT22;9760;50.944;5.304;2022-10-22T14:24:01;19.30;99.90
19252;DHT22;9760;50.944;5.304;2022-10-22T14:26:30;19.30;99.90
19252;DHT22;9760;50.944;5.304;2022-10-22T14:29:01;19.30;99.90
19252;DHT22;9760;50.944;5.304;2022-10-22T14:31:27;19.20;99.90
19252;DHT22;9760;50.944;5.304;2022-10-22T14:33:52;19.10;99.90
19252;DHT22;9760;50.944;5.304;2022-10-22T14:36:18;19.00;99.90
19252;DHT22;9760;50.944;5.304;2022-10-22T14:38:47;19.10;99.90
19252;DHT22;9760;50.944;5.304;2022-10-22T14:41:24;19.10;99.90
19252;DHT22;9760;50.944;5.304;2022-10-22T14:43:51;19.20;99.90
19252;DHT22;9760;50.944;5.304;2022-10-22T14:46:17;19.20;99.90
19252;DHT22;9760;50.944;5.304;2022-10-22T14:48:43;19.10;99.90
19252;DHT22;9760;50.944;5.304;2022-10-22T14:51:13;19.20;99.90
19252;DHT22;9760;50.944;5.304;2022-10-22T14:53:39;19.20;99.90
19252;DHT22;9760;50.944;5.304;2022-10-22T14:56:05;19.20;99.90
19252;DHT22;9760;50.944;5.304;2022-10-22T14:58:30;19.10;99.90
19252;DHT22;9760;50.944;5.304;2022-10-22T15:00:56;19.00;99.90
19252;DHT22;9760;50.944;5.304;2022-10-22T15:03:22;18.90;99.90
19252;DHT22;9760;50.944;5.304;2022-10-22T15:05:50;18.90;99.90
19252;DHT22;9760;50.944;5.304;2022-10-22T15:08:18;19.00;99.90
19252;DHT22;9760;50.944;5.304;2022-10-22T15:10:44;18.90;99.90
19252;DHT22;9760;50.944;5.304;2022-10-22T15:13:10;18.90;99.90
19252;DHT22;9760;50.944;5.304;2022-10-22T15:15:38;18.90;99.90
19252;DHT22;9760;50.944;5.304;2022-10-22T15:18:04;19.00;99.90
19252;DHT22;9760;50.944;5.304;2022-10-22T15:20:29;19.00;99.90
19252;DHT22;9760;50.944;5.304;2022-10-22T15:22:55;19.00;99.90
19252;DHT22;9760;50.944;5.304;2022-10-22T15:25:21;19.00;99.90
19252;DHT22;9760;50.944;5.304;2022-10-22T15:27:47;18.90;99.90
19252;DHT22;9760;50.944;5.304;2022-10-22T15:30:13;18.80;99.90
19252;DHT22;9760;50.944;5.304;2022-10-22T15:32:38;18.90;99.90
19252;DHT22;9760;50.944;5.304;2022-10-22T15:35:05;18.90;99.90
19252;DHT22;9760;50.944;5.304;2022-10-22T15:37:31;18.90;99.90
19252;DHT22;9760;50.944;5.304;2022-10-22T15:39:57;18.80;99.90
19252;DHT22;9760;50.944;5.304;2022-10-22T15:42:23;18.80;99.90
19252;DHT22;9760;50.944;5.304;2022-10-22T15:44:48;18.70;99.90
19252;DHT22;9760;50.944;5.304;2022-10-22T15:47:17;18.60;99.90
19252;DHT22;9760;50.944;5.304;2022-10-22T15:49:42;18.60;99.90
19252;DHT22;9760;50.944;5.304;2022-10-22T15:52:08;18.50;99.90
19252;DHT22;9760;50.944;5.304;2022-10-22T15:54:34;18.50;99.90
19252;DHT22;9760;50.944;5.304;2022-10-22T15:57:00;18.40;99.90
19252;DHT22;9760;50.944;5.304;2022-10-22T15:59:28;18.30;99.90
19252;DHT22;9760;50.944;5.304;2022-10-22T16:01:53;18.30;99.90
19252;DHT22;9760;50.944;5.304;2022-10-22T16:04:19;18.20;99.90
19252;DHT22;9760;50.944;5.304;2022-10-22T16:06:47;18.20;99.90
19252;DHT22;9760;50.944;5.304;2022-10-22T16:09:15;18.10;99.90
19252;DHT22;9760;50.944;5.304;2022-10-22T16:11:42;18.10;99.90
19252;DHT22;9760;50.944;5.304;2022-10-22T16:14:10;18.00;99.90
19252;DHT22;9760;50.944;5.304;2022-10-22T16:16:37;18.00;99.90
19252;DHT22;9760;50.944;5.304;2022-10-22T16:19:04;18.00;99.90
19252;DHT22;9760;50.944;5.304;2022-10-22T16:21:30;18.00;99.90
19252;DHT22;9760;50.944;5.304;2022-10-22T16:23:55;17.90;99.90
19252;DHT22;9760;50.944;5.304;2022-10-22T16:26:21;17.80;99.90
19252;DHT22;9760;50.944;5.304;2022-10-22T16:28:47;17.80;99.90
19252;DHT22;9760;50.944;5.304;2022-10-22T16:31:15;17.70;99.90
19252;DHT22;9760;50.944;5.304;2022-10-22T16:33:41;17.70;99.90
19252;DHT22;9760;50.944;5.304;2022-10-22T16:36:12;17.60;99.90
19252;DHT22;9760;50.944;5.304;2022-10-22T16:38:38;17.50;99.90
19252;DHT22;9760;50.944;5.304;2022-10-22T16:41:12;17.40;99.90
19252;DHT22;9760;50.944;5.304;2022-10-22T16:43:39;17.30;99.90
19252;DHT22;9760;50.944;5.304;2022-10-22T16:46:04;17.30;99.90
19252;DHT22;9760;50.944;5.304;2022-10-22T16:48:31;17.20;99.90
19252;DHT22;9760;50.944;5.304;2022-10-22T16:50:57;17.10;99.90
19252;DHT22;9760;50.944;5.304;2022-10-22T16:53:23;17.00;99.90
19252;DHT22;9760;50.944;5.304;2022-10-22T16:55:49;17.00;99.90
19252;DHT22;9760;50.944;5.304;2022-10-22T16:58:14;16.90;99.90
19252;DHT22;9760;50.944;5.304;2022-10-22T17:00:40;16.80;99.90
19252;DHT22;9760;50.944;5.304;2022-10-22T17:03:05;16.70;99.90
19252;DHT22;9760;50.944;5.304;2022-10-22T17:05:34;16.60;99.90
19252;DHT22;9760;50.944;5.304;2022-10-22T17:08:00;16.50;99.90
19252;DHT22;9760;50.944;5.304;2022-10-22T17:10:26;16.40;99.90
19252;DHT22;9760;50.944;5.304;2022-10-22T17:12:52;16.30;99.90
19252;DHT22;9760;50.944;5.304;2022-10-22T17:15:17;16.30;99.90
19252;DHT22;9760;50.944;5.304;2022-10-22T17:17:43;16.20;99.90
19252;DHT22;9760;50.944;5.304;2022-10-22T17:20:13;16.30;99.90
19252;DHT22;9760;50.944;5.304;2022-10-22T17:22:39;16.40;99.90
19252;DHT22;9760;50.944;5.304;2022-10-22T17:25:11;16.30;99.90
19252;DHT22;9760;50.944;5.304;2022-10-22T17:27:37;16.40;99.90
19252;DHT22;9760;50.944;5.304;2022-10-22T17:30:04;16.40;99.90
19252;DHT22;9760;50.944;5.304;2022-10-22T17:32:31;16.40;99.90
19252;DHT22;9760;50.944;5.304;2022-10-22T17:34:59;16.50;99.90
19252;DHT22;9760;50.944;5.304;2022-10-22T17:37:25;16.50;99.90
19252;DHT22;9760;50.944;5.304;2022-10-22T17:39:51;16.30;99.90
19252;DHT22;9760;50.944;5.304;2022-10-22T17:42:17;16.30;99.90
19252;DHT22;9760;50.944;5.304;2022-10-22T17:44:42;16.20;99.90
19252;DHT22;9760;50.944;5.304;2022-10-22T17:47:08;16.20;99.90
19252;DHT22;9760;50.944;5.304;2022-10-22T17:49:33;16.30;99.90
19252;DHT22;9760;50.944;5.304;2022-10-22T17:51:59;16.30;99.90